Terminal Aerodrome Forecast
Issued by NWS Cheyenne, WY

Home | Current Version | Previous Version | Text Only | Print | Product List | Glossary On
Versions: 1 2 3 4 5 6 7 8 9 10 11 12
000
FTUS45 KCYS 291120
TAFCYS
TAF
KCYS 291120Z 2912/3012 20008KT P6SM FEW250
     FM291800 15012KT P6SM SCT200
     FM300300 21007KT P6SM BKN100=

USA.gov is the U.S. government's official web portal to all federal, state and local government web resources and services.